Time;durP1;ratioP1;P1;durP2;ratioP2;P2;SDS_P1;SDS_P2;PMS_P1;PMS_P2;Temp;Humidity;BMP_temperature;BMP_pressure;BME280_temperature;BME280_humidity;BME280_pressure;Samples;Min_cycle;Max_cycle;Signal;HPM_P1;HPM_P2
2021/09/22 00:01:20;;;;;;;5.93;3.83;;;12.50;73.20;;;;;;5006984;28;20456;-43
2021/09/22 00:03:47;;;;;;;5.10;3.83;;;12.50;73.20;;;;;;5005249;28;20949;-43
2021/09/22 00:06:14;;;;;;;5.57;3.60;;;12.50;73.10;;;;;;5000427;28;20552;-43
2021/09/22 00:08:41;;;;;;;4.63;3.40;;;12.50;73.00;;;;;;5003127;28;20460;-43
2021/09/22 00:11:07;;;;;;;3.97;3.57;;;12.50;72.70;;;;;;5004554;28;20468;-43
2021/09/22 00:13:34;;;;;;;5.57;3.67;;;12.40;72.50;;;;;;5004400;28;20479;-43
2021/09/22 00:16:01;;;;;;;4.23;2.80;;;12.40;72.30;;;;;;5006787;28;20456;-43
2021/09/22 00:18:28;;;;;;;5.27;3.17;;;12.40;72.40;;;;;;5019384;28;20465;-43
2021/09/22 00:20:55;;;;;;;5.97;3.37;;;12.40;72.50;;;;;;5005052;28;20862;-43
2021/09/22 00:23:21;;;;;;;6.90;3.93;;;12.40;72.60;;;;;;5004769;28;20476;-43
2021/09/22 00:25:48;;;;;;;3.87;2.80;;;12.30;72.70;;;;;;5003120;28;20460;-43
2021/09/22 00:28:15;;;;;;;5.17;3.10;;;12.30;73.10;;;;;;4991878;28;20468;-43
2021/09/22 00:30:42;;;;;;;4.80;3.60;;;12.20;73.30;;;;;;4993430;28;20464;-43
2021/09/22 00:33:09;;;;;;;4.07;3.37;;;12.30;73.30;;;;;;4991076;28;20488;-43
2021/09/22 00:35:37;;;;;;;5.10;3.20;;;12.30;73.30;;;;;;4995501;28;20868;-43
2021/09/22 00:38:04;;;;;;;3.90;3.20;;;12.30;73.30;;;;;;4997974;28;20465;-43
2021/09/22 00:40:31;;;;;;;3.90;3.40;;;12.30;73.40;;;;;;5003144;28;20463;-42
2021/09/22 00:42:58;;;;;;;4.60;3.43;;;12.20;73.50;;;;;;4989701;28;20457;-42
2021/09/22 00:45:25;;;;;;;4.60;3.63;;;12.30;73.90;;;;;;4997364;28;20632;-42
2021/09/22 00:47:52;;;;;;;4.90;3.27;;;12.20;74.00;;;;;;4997202;28;20460;-42
2021/09/22 00:50:18;;;;;;;4.77;3.50;;;12.20;74.10;;;;;;4993942;28;20469;-42
2021/09/22 00:52:45;;;;;;;6.47;3.90;;;12.20;74.20;;;;;;5012409;28;20464;-42
2021/09/22 00:55:13;;;;;;;5.00;3.50;;;12.10;74.20;;;;;;4994367;28;20510;-42
2021/09/22 00:57:52;;;;;;;4.83;3.50;;;12.10;74.30;;;;;;4991098;28;20459;-43
2021/09/22 01:00:21;;;;;;;4.37;3.40;;;12.10;74.40;;;;;;4990839;28;20472;-42
2021/09/22 01:02:48;;;;;;;4.83;3.60;;;12.10;74.10;;;;;;4992775;28;20460;-43
2021/09/22 01:05:18;;;;;;;4.13;3.50;;;12.00;74.10;;;;;;5013198;28;20593;-43
2021/09/22 01:07:45;;;;;;;4.60;3.43;;;12.00;74.10;;;;;;5007223;28;20452;-43
2021/09/22 01:10:12;;;;;;;5.07;3.70;;;12.00;74.30;;;;;;5003518;28;20463;-42
2021/09/22 01:12:39;;;;;;;3.90;3.20;;;12.00;74.30;;;;;;4999638;28;20604;-43
2021/09/22 01:15:07;;;;;;;4.07;3.23;;;12.00;74.10;;;;;;4998771;28;20873;-43
2021/09/22 01:17:34;;;;;;;3.53;3.20;;;11.90;74.00;;;;;;5001835;28;20464;-43
2021/09/22 01:20:07;;;;;;;4.37;3.33;;;11.90;74.00;;;;;;5007438;28;20968;-43
2021/09/22 01:22:34;;;;;;;3.47;3.10;;;11.90;74.20;;;;;;5005540;28;22286;-42
2021/09/22 01:25:01;;;;;;;4.67;3.70;;;11.80;74.40;;;;;;5005475;28;20813;-42
2021/09/22 01:27:28;;;;;;;3.90;3.00;;;11.80;74.30;;;;;;5002535;28;20448;-42
2021/09/22 01:29:55;;;;;;;2.77;2.57;;;11.80;74.40;;;;;;5002345;28;20445;-42
2021/09/22 01:32:22;;;;;;;4.70;3.33;;;11.80;74.30;;;;;;5004449;28;20473;-42
2021/09/22 01:34:49;;;;;;;3.60;3.20;;;11.80;74.40;;;;;;5002156;28;20485;-42
2021/09/22 01:37:15;;;;;;;3.70;3.30;;;11.80;74.40;;;;;;5003343;28;20449;-43
2021/09/22 01:39:43;;;;;;;4.57;3.30;;;11.80;74.50;;;;;;5004419;28;20528;-43
2021/09/22 01:42:10;;;;;;;3.57;2.90;;;11.70;74.60;;;;;;5018109;28;20816;-43
2021/09/22 01:44:37;;;;;;;4.17;3.33;;;11.70;74.40;;;;;;5003200;28;20476;-42
2021/09/22 01:47:04;;;;;;;5.77;3.40;;;11.70;74.60;;;;;;5000671;28;20536;-43
2021/09/22 01:49:32;;;;;;;4.50;3.73;;;11.80;74.50;;;;;;4997048;28;20500;-42
2021/09/22 01:52:02;;;;;;;4.03;2.77;;;11.70;74.50;;;;;;4995223;28;20551;-42
2021/09/22 01:54:28;;;;;;;6.30;3.30;;;11.70;74.60;;;;;;5001975;28;21019;-43
2021/09/22 01:56:55;;;;;;;3.67;3.37;;;11.70;74.70;;;;;;4991178;28;20479;-42
2021/09/22 01:59:22;;;;;;;5.60;3.20;;;11.70;74.70;;;;;;4996453;28;20465;-43
2021/09/22 02:01:49;;;;;;;5.00;4.10;;;11.70;74.70;;;;;;4989673;28;20503;-43
2021/09/22 02:04:16;;;;;;;3.77;3.30;;;11.70;74.50;;;;;;4989380;28;20543;-43
2021/09/22 02:06:42;;;;;;;3.93;3.13;;;11.70;74.60;;;;;;4994691;28;20476;-43
2021/09/22 02:09:09;;;;;;;6.10;3.63;;;11.70;74.70;;;;;;4994759;28;20460;-43
2021/09/22 02:11:36;;;;;;;3.63;3.00;;;11.60;74.70;;;;;;4992489;28;20498;-43
2021/09/22 02:14:02;;;;;;;3.57;2.80;;;11.60;74.80;;;;;;4983013;28;20535;-43
2021/09/22 02:16:29;;;;;;;3.40;3.10;;;11.50;75.10;;;;;;4990615;28;20488;-43
2021/09/22 02:18:56;;;;;;;3.67;3.37;;;11.50;75.20;;;;;;4989334;28;20855;-43
2021/09/22 02:21:23;;;;;;;4.13;2.90;;;11.50;75.20;;;;;;4990677;28;22281;-43
2021/09/22 02:23:49;;;;;;;2.87;2.67;;;11.50;75.50;;;;;;4990148;28;20825;-43
2021/09/22 02:26:16;;;;;;;3.77;3.40;;;11.50;75.50;;;;;;5001502;28;20456;-43
2021/09/22 02:28:43;;;;;;;4.70;3.80;;;11.40;75.60;;;;;;4990071;28;21797;-43
2021/09/22 02:31:09;;;;;;;4.07;3.67;;;11.40;75.70;;;;;;4989251;28;20475;-43
2021/09/22 02:33:36;;;;;;;3.20;2.90;;;11.40;75.60;;;;;;4986100;28;21028;-43
2021/09/22 02:36:03;;;;;;;4.60;3.23;;;11.40;75.50;;;;;;4992674;28;21054;-43
2021/09/22 02:38:33;;;;;;;3.70;3.00;;;11.40;75.40;;;;;;4972513;28;20480;-45
2021/09/22 02:41:00;;;;;;;4.00;3.20;;;11.40;75.50;;;;;;4999624;28;20453;-45
2021/09/22 02:43:27;;;;;;;3.30;2.97;;;11.40;75.70;;;;;;4995464;28;21013;-45
2021/09/22 02:45:54;;;;;;;4.00;3.47;;;11.40;75.60;;;;;;4990678;28;21111;-45
2021/09/22 02:48:20;;;;;;;5.13;3.00;;;11.30;75.50;;;;;;4989024;28;20476;-45
2021/09/22 02:50:47;;;;;;;4.50;3.60;;;11.30;75.70;;;;;;4991242;28;20788;-45
2021/09/22 02:53:14;;;;;;;4.40;3.53;;;11.20;76.00;;;;;;4992683;28;20472;-45
2021/09/22 02:55:42;;;;;;;5.93;3.70;;;11.30;76.00;;;;;;4994507;28;20484;-45
2021/09/22 02:58:09;;;;;;;9.67;3.80;;;11.30;76.00;;;;;;4995457;28;20599;-45
2021/09/22 03:00:36;;;;;;;5.07;3.37;;;11.30;76.00;;;;;;4991962;28;20464;-45
2021/09/22 03:03:03;;;;;;;4.93;3.50;;;11.20;76.20;;;;;;4989050;28;20475;-45
2021/09/22 03:05:30;;;;;;;4.80;3.60;;;11.30;76.30;;;;;;4989450;28;20468;-45
2021/09/22 03:07:57;;;;;;;5.07;3.40;;;11.30;76.20;;;;;;4989462;28;20460;-45
2021/09/22 03:10:24;;;;;;;5.10;3.87;;;11.30;76.20;;;;;;4990277;28;20457;-45
2021/09/22 03:12:53;;;;;;;6.43;4.23;;;11.30;76.00;;;;;;5009670;28;20468;-45
2021/09/22 03:15:19;;;;;;;4.27;3.87;;;11.30;76.30;;;;;;4995138;28;21035;-45
2021/09/22 03:17:46;;;;;;;4.47;3.43;;;11.30;76.50;;;;;;4995061;28;20464;-45
2021/09/22 03:20:13;;;;;;;4.13;3.73;;;11.30;76.50;;;;;;5004196;28;20540;-45
2021/09/22 03:22:40;;;;;;;4.80;3.80;;;11.20;76.50;;;;;;4996356;28;20462;-45
2021/09/22 03:25:07;;;;;;;9.53;4.27;;;11.20;76.50;;;;;;5009985;28;20460;-45
2021/09/22 03:27:34;;;;;;;3.80;3.40;;;11.20;76.70;;;;;;5002533;28;22036;-45
2021/09/22 03:30:02;;;;;;;3.30;3.00;;;11.20;76.70;;;;;;4996769;28;20470;-45
2021/09/22 03:32:28;;;;;;;5.43;3.40;;;11.20;76.70;;;;;;4994740;28;20480;-45
2021/09/22 03:34:55;;;;;;;4.40;3.70;;;11.20;76.50;;;;;;4992079;28;20496;-45
2021/09/22 03:37:22;;;;;;;5.43;4.10;;;11.10;76.50;;;;;;4999467;28;21679;-45
2021/09/22 03:39:49;;;;;;;3.27;2.80;;;11.10;76.60;;;;;;5011718;28;20969;-45
2021/09/22 03:42:16;;;;;;;3.83;3.43;;;11.10;76.50;;;;;;4999675;28;20472;-45
2021/09/22 03:44:43;;;;;;;4.10;3.50;;;11.00;76.60;;;;;;4995965;28;20543;-45
2021/09/22 03:47:10;;;;;;;3.47;3.17;;;11.00;76.70;;;;;;5016005;28;20472;-45
2021/09/22 03:49:37;;;;;;;5.00;4.37;;;11.00;76.70;;;;;;4995075;28;20475;-45
2021/09/22 03:52:04;;;;;;;6.00;3.50;;;11.00;76.70;;;;;;4999659;28;20579;-45
2021/09/22 03:54:31;;;;;;;4.80;4.17;;;11.10;76.40;;;;;;5014054;28;20495;-45
2021/09/22 03:56:57;;;;;;;3.50;3.20;;;11.00;76.30;;;;;;5007775;28;20929;-45
2021/09/22 03:59:24;;;;;;;5.37;3.70;;;11.00;76.50;;;;;;5006585;28;21006;-45
2021/09/22 04:01:51;;;;;;;5.00;4.20;;;11.00;76.60;;;;;;5005997;28;20536;-45
2021/09/22 04:04:18;;;;;;;4.70;3.80;;;11.00;76.60;;;;;;5004727;28;20460;-45
2021/09/22 04:06:45;;;;;;;3.97;3.50;;;11.00;76.40;;;;;;5005356;28;20460;-45
2021/09/22 04:09:14;;;;;;;5.63;3.77;;;11.00;76.40;;;;;;5008170;28;20461;-45
2021/09/22 04:11:41;;;;;;;6.17;3.80;;;11.00;76.50;;;;;;5004263;28;20464;-45
2021/09/22 04:14:08;;;;;;;5.20;4.10;;;11.00;76.50;;;;;;5004665;28;20924;-45
2021/09/22 04:16:35;;;;;;;4.40;3.43;;;10.90;76.70;;;;;;5003515;28;21029;-45
2021/09/22 04:19:02;;;;;;;5.30;3.83;;;10.90;77.00;;;;;;5003613;28;21222;-45
2021/09/22 04:21:28;;;;;;;3.57;3.27;;;10.80;77.00;;;;;;5007675;28;20471;-45
2021/09/22 04:23:57;;;;;;;5.03;3.90;;;10.80;77.20;;;;;;5001416;28;20456;-45
2021/09/22 04:26:24;;;;;;;3.60;3.07;;;10.80;77.10;;;;;;5005569;28;20457;-45
2021/09/22 04:28:51;;;;;;;5.00;3.73;;;10.80;77.00;;;;;;5003242;28;20467;-45
2021/09/22 04:31:18;;;;;;;4.23;3.73;;;10.80;76.70;;;;;;5004569;28;20961;-45
2021/09/22 04:33:45;;;;;;;5.77;4.00;;;10.80;76.50;;;;;;5002567;28;20482;-45
2021/09/22 04:36:13;;;;;;;6.10;3.50;;;10.80;76.70;;;;;;5004160;28;20511;-45
2021/09/22 04:38:43;;;;;;;6.80;3.70;;;10.70;76.50;;;;;;5005031;28;21000;-45
2021/09/22 04:41:10;;;;;;;4.30;3.53;;;10.70;76.50;;;;;;5003120;28;20468;-45
2021/09/22 04:43:36;;;;;;;7.13;3.43;;;10.70;76.30;;;;;;5000798;28;20886;-45
2021/09/22 04:46:03;;;;;;;5.30;4.27;;;10.70;76.30;;;;;;5001325;28;20502;-45
2021/09/22 04:48:31;;;;;;;3.73;3.43;;;10.60;76.30;;;;;;5004140;28;20541;-45
2021/09/22 04:50:58;;;;;;;4.33;3.63;;;10.60;76.50;;;;;;5007177;28;20456;-45
2021/09/22 04:53:25;;;;;;;5.77;4.33;;;10.50;76.70;;;;;;5003373;28;20496;-45
2021/09/22 04:55:51;;;;;;;4.70;4.20;;;10.40;77.00;;;;;;5006174;28;20484;-45
2021/09/22 04:58:19;;;;;;;4.63;3.90;;;10.50;77.30;;;;;;5002383;28;20455;-45
2021/09/22 05:00:46;;;;;;;9.57;4.33;;;10.50;77.30;;;;;;5016764;28;20452;-45
2021/09/22 05:03:12;;;;;;;8.43;4.40;;;10.50;77.40;;;;;;5003092;28;20535;-45
2021/09/22 05:05:40;;;;;;;4.63;4.13;;;10.40;77.60;;;;;;5005325;28;20566;-45
2021/09/22 05:08:07;;;;;;;5.93;3.90;;;10.50;77.70;;;;;;5001853;28;20473;-45
2021/09/22 05:10:34;;;;;;;4.63;4.10;;;10.50;77.70;;;;;;5019867;28;20456;-45
2021/09/22 05:13:01;;;;;;;5.20;4.00;;;10.50;77.80;;;;;;5001568;28;20496;-45
2021/09/22 05:15:28;;;;;;;5.23;4.20;;;10.50;78.00;;;;;;5002600;28;20490;-45
2021/09/22 05:17:55;;;;;;;8.07;3.97;;;10.50;78.00;;;;;;4988665;28;20915;-45
2021/09/22 05:20:22;;;;;;;5.97;4.17;;;10.50;77.90;;;;;;5003856;28;20459;-45
2021/09/22 05:22:48;;;;;;;5.60;4.40;;;10.50;78.10;;;;;;5004744;28;20449;-45
2021/09/22 05:25:15;;;;;;;7.27;4.03;;;10.50;78.10;;;;;;5000376;28;20468;-45
2021/09/22 05:27:43;;;;;;;6.27;4.07;;;10.50;78.10;;;;;;5003059;28;20460;-45
2021/09/22 05:30:11;;;;;;;4.07;3.60;;;10.60;78.10;;;;;;5004808;28;20448;-45
2021/09/22 05:32:37;;;;;;;5.70;3.97;;;10.60;78.10;;;;;;5007634;28;20483;-45
2021/09/22 05:35:06;;;;;;;5.33;4.17;;;10.50;78.00;;;;;;5001917;28;20484;-45
2021/09/22 05:37:32;;;;;;;5.70;5.07;;;10.60;78.00;;;;;;4997410;28;20464;-45
2021/09/22 05:40:00;;;;;;;7.83;5.10;;;10.60;78.00;;;;;;5003142;28;20847;-45
2021/09/22 05:42:27;;;;;;;6.53;4.80;;;10.60;78.00;;;;;;5002113;28;20464;-45
2021/09/22 05:44:54;;;;;;;7.57;5.97;;;10.60;78.20;;;;;;5004401;28;20877;-45
2021/09/22 05:47:21;;;;;;;7.17;4.40;;;10.50;78.40;;;;;;5000316;28;20468;-45
2021/09/22 05:49:48;;;;;;;5.07;4.47;;;10.50;78.80;;;;;;5001093;28;20461;-45
2021/09/22 05:52:15;;;;;;;4.90;3.90;;;10.60;78.70;;;;;;5013434;28;20457;-45
2021/09/22 05:54:42;;;;;;;4.30;3.30;;;10.60;78.30;;;;;;4996996;28;20453;-45
2021/09/22 05:57:08;;;;;;;4.40;4.00;;;10.60;78.00;;;;;;5001871;28;20459;-45
2021/09/22 05:59:35;;;;;;;6.43;4.60;;;10.60;77.70;;;;;;5002406;28;20871;-45
2021/09/22 06:02:02;;;;;;;5.33;4.47;;;10.60;77.70;;;;;;4998982;28;20977;-45
2021/09/22 06:04:29;;;;;;;6.40;4.07;;;10.60;77.80;;;;;;5001673;28;20461;-45
2021/09/22 06:06:56;;;;;;;4.43;3.40;;;10.70;77.70;;;;;;5003908;28;20449;-45
2021/09/22 06:09:22;;;;;;;5.40;3.87;;;10.70;77.70;;;;;;5003265;28;20468;-45
2021/09/22 06:11:49;;;;;;;5.20;4.00;;;10.70;77.70;;;;;;5002768;28;20449;-45
2021/09/22 06:14:16;;;;;;;6.50;4.70;;;10.80;77.70;;;;;;5001040;28;20551;-45
2021/09/22 06:16:43;;;;;;;7.83;4.77;;;10.70;78.00;;;;;;5014589;28;20503;-45
2021/09/22 06:19:10;;;;;;;12.00;5.10;;;10.70;78.00;;;;;;5002447;28;20500;-45
2021/09/22 06:21:37;;;;;;;6.67;4.73;;;10.70;78.30;;;;;;5001906;28;20457;-45
2021/09/22 06:24:04;;;;;;;8.07;4.50;;;10.80;78.40;;;;;;5013800;28;21184;-45
2021/09/22 06:26:31;;;;;;;6.87;4.90;;;10.80;78.40;;;;;;5004532;28;20456;-45
2021/09/22 06:28:57;;;;;;;5.90;4.90;;;10.80;78.40;;;;;;5004396;28;20460;-45
2021/09/22 06:31:24;;;;;;;7.57;5.90;;;10.80;78.40;;;;;;5002813;28;20472;-45
2021/09/22 06:33:51;;;;;;;6.60;5.00;;;10.90;78.50;;;;;;5003367;28;20496;-45
2021/09/22 06:36:18;;;;;;;5.63;4.53;;;10.90;78.40;;;;;;5003068;28;20797;-45
2021/09/22 06:38:45;;;;;;;7.07;4.23;;;10.90;78.30;;;;;;5002862;28;20548;-45
2021/09/22 06:41:11;;;;;;;6.40;4.80;;;10.90;78.40;;;;;;5002699;28;20982;-45
2021/09/22 06:43:38;;;;;;;6.87;5.30;;;10.90;78.50;;;;;;5016193;28;20453;-45
2021/09/22 06:46:05;;;;;;;6.40;4.97;;;11.00;78.50;;;;;;5001585;28;20462;-45
2021/09/22 06:48:32;;;;;;;6.20;5.60;;;11.00;78.60;;;;;;5003049;28;20554;-45
2021/09/22 06:50:59;;;;;;;6.53;5.13;;;11.00;78.50;;;;;;5003698;28;20535;-45
2021/09/22 06:53:25;;;;;;;5.80;4.90;;;11.10;78.50;;;;;;5014569;28;20464;-45
2021/09/22 06:55:52;;;;;;;6.17;4.40;;;11.10;78.60;;;;;;5002761;28;20496;-45
2021/09/22 06:58:19;;;;;;;10.97;5.83;;;11.20;78.50;;;;;;5005233;28;20455;-45
2021/09/22 07:00:45;;;;;;;6.27;4.80;;;11.30;78.20;;;;;;5003184;28;20473;-45
2021/09/22 07:03:14;;;;;;;8.23;4.73;;;11.40;78.00;;;;;;5003545;28;20974;-46
2021/09/22 07:05:43;;;;;;;9.10;6.00;;;11.50;77.90;;;;;;5004563;28;20464;-45
2021/09/22 07:08:13;;;;;;;6.53;5.53;;;11.50;77.70;;;;;;5000923;28;21048;-45
2021/09/22 07:10:40;;;;;;;5.50;4.90;;;11.60;77.50;;;;;;5015571;28;20564;-45
2021/09/22 07:13:07;;;;;;;6.73;6.03;;;11.60;77.60;;;;;;5001242;28;20484;-45
2021/09/22 07:15:35;;;;;;;6.80;6.20;;;11.60;77.80;;;;;;5001704;28;20499;-45
2021/09/22 07:18:16;;;;;;;9.80;6.90;;;11.70;78.10;;;;;;5002750;28;20452;-45
2021/09/22 07:20:42;;;;;;;10.13;7.47;;;11.70;78.10;;;;;;5008698;28;20459;-45
2021/09/22 07:23:09;;;;;;;9.90;6.30;;;11.80;78.20;;;;;;5003175;28;20454;-45
2021/09/22 07:25:36;;;;;;;12.10;8.80;;;11.80;78.20;;;;;;5002224;28;20461;-45
2021/09/22 07:28:03;;;;;;;10.50;7.80;;;11.90;78.30;;;;;;5002543;28;20452;-45
2021/09/22 07:30:30;;;;;;;10.27;7.57;;;12.00;78.10;;;;;;5003909;28;20461;-46
2021/09/22 07:32:59;;;;;;;10.30;7.73;;;12.10;77.80;;;;;;5002101;28;21067;-46
2021/09/22 07:35:27;;;;;;;13.97;9.50;;;12.20;77.70;;;;;;4998691;28;20492;-46
2021/09/22 07:37:54;;;;;;;15.53;9.20;;;12.30;77.60;;;;;;4996063;28;20457;-46
2021/09/22 07:40:20;;;;;;;11.80;9.63;;;12.40;77.50;;;;;;4997218;28;20457;-46
2021/09/22 07:42:47;;;;;;;13.77;8.57;;;12.50;77.40;;;;;;4998828;28;20466;-46
2021/09/22 07:45:15;;;;;;;14.30;8.90;;;12.60;77.20;;;;;;5002105;28;20820;-46
2021/09/22 07:47:42;;;;;;;13.83;8.53;;;12.70;77.00;;;;;;5001194;28;20475;-46
2021/09/22 07:50:10;;;;;;;12.43;8.77;;;12.90;76.80;;;;;;5002522;28;20451;-46
2021/09/22 07:52:38;;;;;;;12.83;8.87;;;13.10;76.30;;;;;;4999411;28;20464;-46
2021/09/22 07:55:08;;;;;;;10.73;8.33;;;13.20;75.60;;;;;;4998654;28;20467;-46
2021/09/22 07:57:36;;;;;;;13.87;9.10;;;13.30;75.10;;;;;;5003683;28;20989;-46
2021/09/22 08:00:05;;;;;;;15.63;7.80;;;13.40;74.40;;;;;;4998168;28;20510;-46
2021/09/22 08:02:32;;;;;;;12.47;8.17;;;13.50;74.10;;;;;;5003741;28;20478;-46
2021/09/22 08:04:59;;;;;;;16.87;9.43;;;13.60;73.90;;;;;;5004959;28;21029;-46
2021/09/22 08:07:44;;;;;;;12.00;8.97;;;13.70;73.80;;;;;;5019013;28;20522;-46
2021/09/22 08:10:15;;;;;;;13.43;8.80;;;13.80;73.60;;;;;;5007264;28;20491;-46
2021/09/22 08:12:43;;;;;;;10.97;8.80;;;13.90;73.00;;;;;;5006354;28;20454;-47
2021/09/22 08:15:10;;;;;;;11.33;8.73;;;14.00;72.50;;;;;;5002992;28;20475;-46
2021/09/22 08:17:37;;;;;;;10.80;8.30;;;14.10;71.90;;;;;;5002437;28;20461;-46
2021/09/22 08:20:05;;;;;;;8.93;7.70;;;14.30;71.50;;;;;;5004993;28;20961;-46
2021/09/22 08:22:32;;;;;;;12.93;9.23;;;14.30;71.20;;;;;;5019298;28;20892;-46
2021/09/22 08:24:59;;;;;;;13.40;7.50;;;14.40;71.30;;;;;;5006657;28;20522;-46
2021/09/22 08:27:26;;;;;;;12.50;7.97;;;14.50;71.10;;;;;;5000884;28;20839;-46
2021/09/22 08:29:53;;;;;;;10.73;7.60;;;14.70;70.80;;;;;;5002621;28;20460;-46
2021/09/22 08:32:19;;;;;;;12.80;8.60;;;14.90;69.80;;;;;;5003505;28;20479;-46
2021/09/22 08:34:47;;;;;;;12.40;8.50;;;15.10;69.60;;;;;;4999105;28;20961;-47
2021/09/22 08:37:14;;;;;;;10.80;7.87;;;15.30;68.60;;;;;;4991207;28;20503;-47
2021/09/22 08:39:40;;;;;;;12.50;7.80;;;15.40;67.40;;;;;;5004385;28;20468;-47
2021/09/22 08:42:07;;;;;;;8.70;7.40;;;15.60;67.60;;;;;;5022012;28;20487;-47
2021/09/22 08:44:34;;;;;;;9.63;6.80;;;15.70;67.30;;;;;;5002151;28;22239;-47
2021/09/22 08:47:01;;;;;;;10.20;7.33;;;15.80;66.90;;;;;;5000548;28;20466;-47
2021/09/22 08:49:28;;;;;;;9.10;6.70;;;16.00;66.60;;;;;;5009695;28;20474;-47
2021/09/22 08:51:55;;;;;;;13.40;7.53;;;16.10;66.20;;;;;;5000248;28;20465;-47
2021/09/22 08:54:21;;;;;;;8.77;7.27;;;16.20;65.80;;;;;;5000596;28;20840;-47
2021/09/22 08:56:48;;;;;;;10.83;7.00;;;16.40;65.30;;;;;;4999867;28;20497;-47
2021/09/22 08:59:16;;;;;;;9.70;8.20;;;16.50;65.10;;;;;;4997184;28;20479;-47
2021/09/22 09:02:04;;;;;;;7.70;6.90;;;16.40;65.20;;;;;;5000133;28;20831;-47
2021/09/22 09:04:32;;;;;;;12.87;8.90;;;16.40;65.30;;;;;;5002502;28;20456;-47
2021/09/22 09:06:59;;;;;;;10.17;8.03;;;16.50;65.30;;;;;;5002260;28;20464;-47
2021/09/22 09:09:37;;;;;;;8.20;6.97;;;16.60;65.10;;;;;;4999896;28;20477;-47
2021/09/22 09:12:16;;;;;;;10.83;7.43;;;16.70;64.50;;;;;;5004648;28;20464;-47
2021/09/22 09:14:56;;;;;;;10.33;6.10;;;16.90;63.90;;;;;;5001595;28;21001;-47
2021/09/22 09:17:37;;;;;;;14.37;8.10;;;16.90;63.60;;;;;;5000664;28;21273;-47
2021/09/22 09:20:20;;;;;;;9.73;7.30;;;17.00;63.40;;;;;;5002158;28;20461;-47
2021/09/22 09:23:02;;;;;;;9.50;7.27;;;17.10;63.40;;;;;;5003081;28;20465;-47
2021/09/22 09:25:32;;;;;;;9.00;7.30;;;17.10;62.50;;;;;;5002944;28;20985;-46
2021/09/22 09:28:13;;;;;;;8.97;7.00;;;17.10;62.50;;;;;;5003872;28;20961;-46
2021/09/22 09:30:47;;;;;;;9.20;7.10;;;17.10;62.90;;;;;;5001202;28;20457;-46
2021/09/22 09:33:34;;;;;;;9.07;6.80;;;17.00;63.30;;;;;;5000290;28;20458;-47
2021/09/22 09:36:24;;;;;;;10.57;5.90;;;17.00;63.40;;;;;;4993061;28;20888;-47
2021/09/22 09:38:53;;;;;;;11.03;7.87;;;17.00;62.40;;;;;;5001760;28;20460;-47
2021/09/22 09:41:25;;;;;;;10.83;7.47;;;17.10;61.60;;;;;;5002830;28;20452;-46
2021/09/22 09:43:53;;;;;;;10.30;7.67;;;17.10;61.90;;;;;;5013564;28;20468;-46
2021/09/22 09:46:24;;;;;;;12.30;7.77;;;17.00;61.40;;;;;;5001198;28;21003;-47
2021/09/22 09:49:02;;;;;;;11.90;7.77;;;17.00;61.90;;;;;;5002275;28;20461;-46
2021/09/22 09:51:34;;;;;;;13.20;8.80;;;17.00;62.00;;;;;;5001677;28;20464;-46
2021/09/22 09:54:32;;;;;;;13.07;7.90;;;17.10;62.10;;;;;;5003224;28;20463;-47
2021/09/22 09:57:10;;;;;;;11.97;7.83;;;17.20;62.10;;;;;;5001010;28;20533;-47
2021/09/22 09:59:46;;;;;;;14.80;7.27;;;17.20;62.20;;;;;;5002339;28;20984;-47
2021/09/22 10:02:33;;;;;;;12.90;8.30;;;17.30;61.60;;;;;;5018891;28;20460;-47
2021/09/22 10:05:01;;;;;;;11.40;7.70;;;17.50;61.80;;;;;;5005935;28;20980;-47
2021/09/22 10:07:30;;;;;;;10.40;6.83;;;17.60;61.90;;;;;;5001057;28;20482;-47
2021/09/22 10:09:56;;;;;;;10.83;6.83;;;17.70;61.40;;;;;;5004152;28;20468;-47
2021/09/22 10:12:23;;;;;;;12.60;8.10;;;17.80;61.80;;;;;;5000228;28;20467;-47
2021/09/22 10:14:52;;;;;;;9.57;6.60;;;18.00;61.00;;;;;;5000230;28;21010;-47
2021/09/22 10:17:24;;;;;;;11.17;6.90;;;18.10;59.90;;;;;;5012195;28;20516;-47
2021/09/22 10:19:54;;;;;;;8.73;6.20;;;18.40;59.20;;;;;;4999514;28;20456;-47
2021/09/22 10:22:21;;;;;;;12.47;7.43;;;18.70;58.30;;;;;;5003131;28;20548;-47
2021/09/22 10:24:52;;;;;;;14.50;6.97;;;18.90;57.70;;;;;;5007519;28;20514;-47
2021/09/22 10:27:20;;;;;;;8.23;7.30;;;19.20;57.30;;;;;;5003649;28;20461;-47
2021/09/22 10:30:00;;;;;;;10.80;6.87;;;19.40;56.80;;;;;;5001525;28;20463;-47
2021/09/22 10:32:47;;;;;;;10.13;7.47;;;19.70;56.30;;;;;;5005354;28;20464;-47
2021/09/22 10:35:26;;;;;;;9.00;6.13;;;20.00;56.00;;;;;;5001184;28;21010;-47
2021/09/22 10:37:58;;;;;;;9.60;6.97;;;20.30;55.90;;;;;;5001970;28;20643;-46
2021/09/22 10:40:47;;;;;;;10.27;7.10;;;20.60;54.50;;;;;;5003827;28;20478;-47
2021/09/22 10:43:14;;;;;;;9.90;6.63;;;20.80;53.90;;;;;;5000700;28;20491;-46
2021/09/22 10:45:45;;;;;;;16.37;6.37;;;20.80;53.40;;;;;;5005277;28;20467;-47
2021/09/22 10:48:20;;;;;;;10.20;6.70;;;20.70;53.80;;;;;;5006606;28;20464;-47
2021/09/22 10:50:52;;;;;;;8.40;5.90;;;20.70;53.90;;;;;;5000690;28;20458;-47
2021/09/22 10:53:31;;;;;;;7.73;5.13;;;20.60;54.20;;;;;;5001584;28;20473;-47
2021/09/22 10:56:14;;;;;;;9.13;5.57;;;20.50;54.20;;;;;;5013277;28;20495;-46
2021/09/22 10:58:51;;;;;;;11.40;5.83;;;20.50;54.40;;;;;;5005346;28;20450;-47
2021/09/22 11:01:39;;;;;;;7.40;5.13;;;20.50;54.70;;;;;;5004262;28;21028;-47
2021/09/22 11:04:11;;;;;;;6.23;4.90;;;20.40;55.40;;;;;;5001442;28;20460;-47
2021/09/22 11:06:44;;;;;;;8.67;6.23;;;20.50;55.90;;;;;;5004149;28;20520;-46
2021/09/22 11:09:12;;;;;;;7.30;6.37;;;20.40;55.60;;;;;;5005483;28;20965;-47
2021/09/22 11:12:12;;;;;;;9.40;6.80;;;20.30;55.40;;;;;;5001803;28;20464;-46
2021/09/22 11:14:49;;;;;;;13.00;6.40;;;20.30;55.70;;;;;;4956925;28;20511;-46
2021/09/22 11:17:22;;;;;;;11.10;5.53;;;20.30;56.00;;;;;;5002520;28;20495;-47
2021/09/22 11:20:00;;;;;;;8.43;6.53;;;20.30;56.50;;;;;;5001203;28;20467;-47
2021/09/22 11:22:32;;;;;;;5.33;4.60;;;20.20;56.30;;;;;;4995726;28;20465;-46
2021/09/22 11:25:06;;;;;;;6.70;5.83;;;20.20;56.40;;;;;;4996047;28;20461;-46
2021/09/22 11:27:33;;;;;;;9.57;5.77;;;20.10;57.40;;;;;;5000552;28;20468;-47
2021/09/22 11:30:07;;;;;;;8.87;6.90;;;20.00;57.80;;;;;;5002272;28;20838;-46
2021/09/22 11:32:40;;;;;;;9.43;6.50;;;19.90;57.70;;;;;;5000613;28;20480;-46
2021/09/22 11:35:12;;;;;;;12.77;7.47;;;19.70;57.70;;;;;;5000679;28;20460;-47
2021/09/22 11:37:42;;;;;;;9.47;5.70;;;19.60;58.10;;;;;;4999433;28;20825;-46
2021/09/22 11:40:23;;;;;;;5.43;4.63;;;19.50;58.30;;;;;;5005968;28;20463;-47
2021/09/22 11:42:56;;;;;;;4.90;4.20;;;19.40;58.30;;;;;;5002324;28;20456;-46
2021/09/22 11:45:29;;;;;;;6.70;4.70;;;19.30;58.40;;;;;;5003504;28;21005;-46
2021/09/22 11:47:56;;;;;;;5.03;4.50;;;19.30;58.60;;;;;;5005307;28;20464;-46
2021/09/22 11:50:41;;;;;;;6.03;4.80;;;19.30;58.90;;;;;;5007135;28;20461;-46
2021/09/22 11:53:14;;;;;;;7.10;4.67;;;19.20;59.10;;;;;;5004226;28;20932;-46
2021/09/22 11:55:43;;;;;;;8.70;5.20;;;19.10;59.30;;;;;;5003046;28;20860;-46
2021/09/22 11:58:18;;;;;;;5.03;4.53;;;19.10;59.60;;;;;;5006416;28;20490;-46
2021/09/22 12:00:50;;;;;;;6.20;4.83;;;19.10;59.30;;;;;;5004153;28;20452;-47
2021/09/22 12:03:24;;;;;;;7.17;5.43;;;19.00;59.30;;;;;;5006033;28;20963;-46
2021/09/22 12:06:05;;;;;;;6.77;4.10;;;19.00;59.20;;;;;;5004703;28;20539;-46
2021/09/22 12:08:34;;;;;;;7.00;5.13;;;19.10;59.10;;;;;;5003647;28;20458;-46
2021/09/22 12:11:01;;;;;;;10.60;6.03;;;19.00;59.30;;;;;;5005063;28;20475;-46
2021/09/22 12:13:28;;;;;;;6.47;5.30;;;19.10;59.60;;;;;;5005415;28;20483;-47
2021/09/22 12:15:57;;;;;;;7.83;4.93;;;19.10;59.50;;;;;;5019991;28;20464;-46
2021/09/22 12:18:25;;;;;;;7.60;5.70;;;19.10;59.50;;;;;;5004970;28;20484;-46
2021/09/22 12:20:54;;;;;;;8.90;5.90;;;19.10;59.50;;;;;;5004427;28;20977;-46
2021/09/22 12:23:30;;;;;;;6.20;5.10;;;19.10;59.80;;;;;;5005953;28;20471;-46
2021/09/22 12:26:29;;;;;;;8.10;5.50;;;19.20;59.70;;;;;;5005386;28;20459;-47
2021/09/22 12:29:12;;;;;;;5.97;4.93;;;19.30;59.80;;;;;;4964536;28;20472;-46
2021/09/22 12:31:42;;;;;;;8.87;5.40;;;19.30;59.50;;;;;;5001382;28;20547;-46
2021/09/22 12:34:22;;;;;;;5.90;5.00;;;19.30;59.50;;;;;;5007076;28;20506;-46
2021/09/22 12:36:52;;;;;;;6.77;5.70;;;19.30;59.40;;;;;;5005020;28;20496;-46
2021/09/22 12:39:23;;;;;;;6.13;5.30;;;19.40;59.20;;;;;;5006053;28;20451;-46
2021/09/22 12:42:03;;;;;;;6.10;4.77;;;19.30;59.00;;;;;;5000116;28;21039;-46
2021/09/22 12:44:50;;;;;;;7.10;4.60;;;19.30;59.30;;;;;;5006558;28;20461;-46
2021/09/22 12:47:17;;;;;;;4.93;4.47;;;19.30;59.30;;;;;;5001727;28;20478;-46
2021/09/22 12:50:07;;;;;;;5.67;4.70;;;19.20;59.20;;;;;;5001404;28;20468;-46
2021/09/22 12:52:34;;;;;;;5.70;4.70;;;19.20;59.10;;;;;;5000881;28;20830;-46
2021/09/22 12:55:21;;;;;;;9.33;4.50;;;19.30;58.90;;;;;;5005300;28;20464;-46
2021/09/22 12:58:00;;;;;;;5.10;4.27;;;19.30;59.00;;;;;;4999590;28;20493;-46